createdAt,value
2022-11-24T00:02:09.444Z,12.40
2022-11-24T00:04:52.909Z,11.60
2022-11-24T00:07:36.007Z,11.77
2022-11-24T00:10:19.108Z,11.50
2022-11-24T00:13:02.101Z,11.87
2022-11-24T00:15:45.260Z,11.00
2022-11-24T00:18:29.629Z,11.77
2022-11-24T00:21:13.276Z,13.07
2022-11-24T00:23:56.282Z,14.47
2022-11-24T00:26:39.328Z,14.40
2022-11-24T00:29:22.348Z,13.83
2022-11-24T00:32:06.560Z,12.70
2022-11-24T00:34:50.938Z,15.67
2022-11-24T00:37:33.942Z,14.47
2022-11-24T00:40:17.280Z,14.23
2022-11-24T00:43:00.575Z,14.77
2022-11-24T00:45:44.014Z,15.30
2022-11-24T00:48:27.209Z,15.33
2022-11-24T00:51:14.671Z,12.67
2022-11-24T00:53:57.790Z,15.20
2022-11-24T00:56:40.788Z,15.33
2022-11-24T00:59:23.767Z,15.03
2022-11-24T01:02:07.526Z,14.13
2022-11-24T01:04:50.574Z,15.87
2022-11-24T01:07:35.032Z,14.47
2022-11-24T01:10:18.370Z,12.83
2022-11-24T01:13:01.638Z,12.60
2022-11-24T01:15:44.695Z,14.17
2022-11-24T01:18:27.749Z,12.53
2022-11-24T01:21:10.927Z,12.90
2022-11-24T01:23:55.316Z,12.03
2022-11-24T01:26:39.077Z,13.20
2022-11-24T01:29:22.246Z,11.70
2022-11-24T01:32:05.717Z,12.93
2022-11-24T01:34:49.192Z,12.90
2022-11-24T01:37:32.183Z,10.73
2022-11-24T01:40:17.187Z,11.60
2022-11-24T01:43:00.176Z,10.37
2022-11-24T01:45:43.290Z,12.37
2022-11-24T01:48:29.845Z,11.50
2022-11-24T01:51:16.159Z,11.80
2022-11-24T01:54:03.829Z,11.27
2022-11-24T01:56:52.789Z,10.03
2022-11-24T01:59:36.121Z,10.47
2022-11-24T02:02:20.569Z,10.90
2022-11-24T02:05:07.803Z,10.03
2022-11-24T02:07:53.454Z,11.87
2022-11-24T02:10:37.201Z,10.27
2022-11-24T02:13:22.912Z,10.90
2022-11-24T02:16:08.001Z,10.93
2022-11-24T02:18:51.090Z,11.53
2022-11-24T02:21:34.156Z,11.33
2022-11-24T02:24:23.278Z,10.93
2022-11-24T02:27:07.887Z,11.43
2022-11-24T02:29:51.251Z,11.90
2022-11-24T02:32:34.759Z,11.93
2022-11-24T02:35:17.798Z,11.27
2022-11-24T02:38:00.974Z,10.63
2022-11-24T02:40:47.608Z,10.63
2022-11-24T02:43:35.360Z,11.20
2022-11-24T02:46:18.515Z,9.67
2022-11-24T02:49:01.553Z,10.57
2022-11-24T02:51:44.524Z,10.87
2022-11-24T02:54:27.844Z,10.70
2022-11-24T02:57:11.540Z,9.90
2022-11-24T02:59:55.937Z,10.23
2022-11-24T03:02:39.046Z,10.40
2022-11-24T03:05:22.204Z,10.40
2022-11-24T03:08:05.617Z,10.70
2022-11-24T03:10:49.238Z,10.87
2022-11-24T03:13:32.229Z,10.47
2022-11-24T03:16:16.616Z,11.03
2022-11-24T03:19:00.097Z,10.83
2022-11-24T03:21:43.090Z,10.23
2022-11-24T03:24:26.133Z,10.53
2022-11-24T03:27:09.221Z,11.50
2022-11-24T03:29:52.341Z,10.97
2022-11-24T03:32:36.681Z,11.17
2022-11-24T03:35:19.705Z,10.80
2022-11-24T03:38:02.822Z,12.13
2022-11-24T03:40:45.836Z,11.60
2022-11-24T03:43:28.860Z,11.30
2022-11-24T03:46:12.215Z,10.77
2022-11-24T03:48:56.738Z,10.70
2022-11-24T03:51:39.810Z,11.70
2022-11-24T03:54:22.792Z,10.30
2022-11-24T03:57:05.837Z,10.67
2022-11-24T03:59:48.885Z,10.27
2022-11-24T04:02:31.995Z,11.83
2022-11-24T04:05:16.592Z,11.23
2022-11-24T04:08:02.997Z,10.10
2022-11-24T04:10:46.016Z,9.93
2022-11-24T04:13:28.731Z,10.80
2022-11-24T04:16:11.800Z,10.77
2022-11-24T04:18:55.088Z,10.73
2022-11-24T04:21:39.490Z,11.13
2022-11-24T04:24:22.544Z,11.60
2022-11-24T04:27:05.620Z,11.50
2022-11-24T04:29:48.635Z,11.20
2022-11-24T04:32:31.668Z,11.77
2022-11-24T04:35:15.145Z,12.30
2022-11-24T04:38:03.448Z,13.67
2022-11-24T04:40:46.454Z,13.77
2022-11-24T04:43:29.510Z,14.20
2022-11-24T04:46:12.991Z,12.77
2022-11-24T04:48:56.054Z,13.37
2022-11-24T04:51:39.324Z,12.17
2022-11-24T04:54:23.950Z,11.20
2022-11-24T04:57:06.988Z,10.90
2022-11-24T04:59:50.765Z,10.07
2022-11-24T05:02:33.788Z,10.13
2022-11-24T05:05:16.896Z,9.23
2022-11-24T05:08:00.653Z,9.80
2022-11-24T05:10:45.334Z,9.20
2022-11-24T05:13:28.383Z,9.17
2022-11-24T05:16:11.782Z,9.27
2022-11-24T05:18:54.838Z,10.70
2022-11-24T05:21:38.096Z,10.60
2022-11-24T05:24:21.118Z,18.53
2022-11-24T05:27:05.486Z,10.43
2022-11-24T05:29:48.610Z,10.57
2022-11-24T05:32:31.721Z,10.07
2022-11-24T05:35:15.130Z,10.60
2022-11-24T05:37:59.644Z,10.57
2022-11-24T05:40:43.020Z,11.63
2022-11-24T05:43:27.589Z,11.80
2022-11-24T05:46:10.655Z,10.43
2022-11-24T05:48:53.707Z,9.97
2022-11-24T05:51:36.773Z,10.70
2022-11-24T05:54:19.806Z,10.43
2022-11-24T05:57:02.843Z,10.20
2022-11-24T05:59:47.509Z,11.00
2022-11-24T06:02:30.751Z,10.07
2022-11-24T06:05:13.848Z,11.13
2022-11-24T06:07:57.317Z,10.63
2022-11-24T06:10:40.429Z,9.90
2022-11-24T06:13:23.516Z,9.67
2022-11-24T06:16:08.469Z,10.90
2022-11-24T06:18:51.498Z,9.83
2022-11-24T06:21:34.483Z,9.97
2022-11-24T06:24:17.552Z,9.73
2022-11-24T06:27:00.616Z,9.13
2022-11-24T06:29:43.799Z,10.17
2022-11-24T06:32:28.341Z,10.07
2022-11-24T06:35:11.392Z,10.67
2022-11-24T06:37:54.499Z,11.83
2022-11-24T06:40:37.577Z,13.07
2022-11-24T06:43:20.643Z,13.43
2022-11-24T06:46:04.743Z,14.93
2022-11-24T06:48:49.424Z,15.00
2022-11-24T06:51:32.552Z,14.43
2022-11-24T06:54:17.457Z,14.97
2022-11-24T06:57:01.319Z,15.73
2022-11-24T06:59:44.382Z,15.87
2022-11-24T07:02:27.464Z,16.93
2022-11-24T07:05:12.050Z,18.40
2022-11-24T07:07:55.424Z,22.53
2022-11-24T07:10:38.753Z,23.57
2022-11-24T07:13:21.891Z,21.70
2022-11-24T07:16:13.171Z,23.93
2022-11-24T07:18:56.444Z,23.20
2022-11-24T07:21:41.116Z,22.93
2022-11-24T07:24:24.215Z,24.03
2022-11-24T07:27:07.182Z,24.63
2022-11-24T07:29:50.201Z,22.40
2022-11-24T07:32:33.164Z,22.23
2022-11-24T07:35:16.359Z,21.40
2022-11-24T07:38:00.874Z,20.23
2022-11-24T07:40:44.106Z,21.17
2022-11-24T07:43:27.116Z,17.90
2022-11-24T07:46:13.654Z,19.33
2022-11-24T07:48:56.846Z,19.40
2022-11-24T07:51:39.888Z,19.27
2022-11-24T07:54:24.353Z,19.47
2022-11-24T07:57:07.354Z,17.67
2022-11-24T07:59:50.402Z,15.20
2022-11-24T08:02:35.767Z,16.80
2022-11-24T08:05:18.876Z,16.40
2022-11-24T08:08:01.976Z,16.37
2022-11-24T08:10:46.412Z,16.87
2022-11-24T08:13:29.524Z,16.47
2022-11-24T08:16:15.124Z,15.57
2022-11-24T08:18:58.314Z,16.30
2022-11-24T08:21:41.346Z,15.57
2022-11-24T08:24:24.466Z,15.40
2022-11-24T08:27:08.861Z,15.43
2022-11-24T08:29:51.928Z,14.73
2022-11-24T08:32:35.014Z,15.30
2022-11-24T08:35:18.266Z,15.67
2022-11-24T08:38:04.789Z,14.57
2022-11-24T08:40:48.055Z,15.53
2022-11-24T08:43:32.973Z,14.30
2022-11-24T08:46:17.934Z,14.83
2022-11-24T08:49:01.290Z,14.57
2022-11-24T08:51:44.405Z,14.70
2022-11-24T08:54:28.077Z,15.27
2022-11-24T08:57:11.191Z,13.90
2022-11-24T08:59:55.672Z,13.60
2022-11-24T09:02:38.880Z,13.57
2022-11-24T09:05:50.278Z,12.97
2022-11-24T09:08:24.992Z,11.83
2022-11-24T09:11:09.840Z,12.70
2022-11-24T09:13:53.292Z,11.13
2022-11-24T09:16:38.056Z,10.87
2022-11-24T09:19:21.179Z,10.20
2022-11-24T09:22:04.960Z,9.50
2022-11-24T09:24:48.030Z,9.77
2022-11-24T09:27:31.170Z,9.73
2022-11-24T09:30:15.088Z,9.70
2022-11-24T09:32:59.528Z,8.90
2022-11-24T09:35:42.650Z,8.30
2022-11-24T09:38:25.845Z,8.73
2022-11-24T09:41:48.758Z,8.53
2022-11-24T09:45:04.216Z,7.37
2022-11-24T09:47:59.630Z,7.50
2022-11-24T09:50:47.258Z,7.80
2022-11-24T09:53:35.763Z,7.07
2022-11-24T09:56:22.432Z,6.93
2022-11-24T09:59:11.984Z,7.13
2022-11-24T10:01:55.933Z,6.83
2022-11-24T10:04:43.347Z,7.50
2022-11-24T10:07:31.957Z,7.03
2022-11-24T10:10:24.525Z,6.33
2022-11-24T10:13:26.717Z,6.10
2022-11-24T10:16:19.557Z,5.70
2022-11-24T10:19:13.109Z,6.53
2022-11-24T10:22:07.492Z,5.93
2022-11-24T10:25:09.307Z,6.97
2022-11-24T10:28:00.009Z,7.00
2022-11-24T10:30:43.791Z,6.60
2022-11-24T10:33:30.800Z,6.90
2022-11-24T10:36:20.544Z,8.17
2022-11-24T10:39:12.310Z,6.90
2022-11-24T10:42:02.629Z,6.67
2022-11-24T10:44:45.786Z,7.93
2022-11-24T10:47:29.695Z,8.37
2022-11-24T10:50:21.687Z,6.67
2022-11-24T10:53:15.758Z,8.20
2022-11-24T10:56:01.076Z,7.70
2022-11-24T10:58:45.615Z,7.97
2022-11-24T11:01:33.377Z,7.67
2022-11-24T11:04:21.093Z,7.60
2022-11-24T11:07:19.414Z,8.30
2022-11-24T11:10:23.264Z,9.37
2022-11-24T11:13:25.752Z,8.03
2022-11-24T11:16:25.599Z,8.80
2022-11-24T11:19:48.474Z,8.80
2022-11-24T11:22:34.135Z,8.10
2022-11-24T11:25:23.437Z,8.00
2022-11-24T11:28:23.044Z,10.00
2022-11-24T11:31:18.032Z,9.67
2022-11-24T11:34:22.079Z,9.33
2022-11-24T11:37:07.838Z,9.60
2022-11-24T11:39:52.413Z,10.20
2022-11-24T11:43:01.917Z,10.10
2022-11-24T11:45:47.733Z,9.20
2022-11-24T11:48:42.425Z,10.27
2022-11-24T11:51:43.282Z,9.83
2022-11-24T11:54:43.410Z,9.80
2022-11-24T11:57:37.694Z,9.53
2022-11-24T12:00:22.163Z,9.90
2022-11-24T12:03:50.003Z,10.30
2022-11-24T12:06:53.302Z,10.07
2022-11-24T12:09:51.525Z,9.90
2022-11-24T12:13:08.451Z,11.17
2022-11-24T12:15:56.118Z,11.10
2022-11-24T12:18:57.561Z,11.17
2022-11-24T12:21:52.138Z,10.40
2022-11-24T12:24:45.921Z,10.60
2022-11-24T12:27:40.056Z,10.57
2022-11-24T12:30:24.019Z,11.00
2022-11-24T12:33:23.928Z,11.27
2022-11-24T12:36:14.977Z,10.83
2022-11-24T12:39:06.808Z,11.13
2022-11-24T12:42:01.868Z,11.43
2022-11-24T12:44:59.951Z,10.43
2022-11-24T12:48:06.987Z,9.90
2022-11-24T12:50:52.802Z,10.10
2022-11-24T12:53:38.649Z,11.43
2022-11-24T12:56:30.851Z,9.53
2022-11-24T12:59:23.853Z,10.57
2022-11-24T13:02:22.264Z,9.93
2022-11-24T13:05:20.208Z,10.70
2022-11-24T13:08:05.887Z,10.30
2022-11-24T13:14:00.767Z,12.20
2022-11-24T13:20:16.003Z,10.53
2022-11-24T13:23:02.762Z,10.80
2022-11-24T13:26:15.920Z,10.10
2022-11-24T13:29:18.373Z,10.13
2022-11-24T13:32:52.851Z,9.90
2022-11-24T13:35:35.924Z,10.17
2022-11-24T13:38:40.901Z,10.30
2022-11-24T13:42:10.332Z,9.37
2022-11-24T13:49:02.428Z,10.13
2022-11-24T13:51:45.860Z,9.43
2022-11-24T13:54:30.102Z,8.80
2022-11-24T13:57:34.435Z,8.87
2022-11-24T14:00:21.616Z,10.40
2022-11-24T14:03:14.587Z,10.00
2022-11-24T14:06:00.525Z,11.03
2022-11-24T14:08:47.028Z,9.50
2022-11-24T14:11:30.409Z,10.00
2022-11-24T14:14:22.947Z,9.53
2022-11-24T14:17:24.365Z,9.93
2022-11-24T14:20:18.404Z,9.63
2022-11-24T14:23:03.084Z,9.73
2022-11-24T14:25:50.322Z,10.17
2022-11-24T14:28:33.496Z,9.63
2022-11-24T14:31:23.006Z,10.77
2022-11-24T14:34:16.595Z,8.80
2022-11-24T14:37:01.654Z,10.60
2022-11-24T14:39:46.255Z,10.37
2022-11-24T14:42:29.646Z,9.40
2022-11-24T14:45:19.556Z,9.60
2022-11-24T14:48:02.784Z,9.13
2022-11-24T14:50:46.005Z,9.70
2022-11-24T14:53:29.299Z,8.90
2022-11-24T14:56:24.405Z,7.97
2022-11-24T14:59:23.253Z,8.03
2022-11-24T15:02:40.613Z,8.03
2022-11-24T15:05:25.985Z,8.97
2022-11-24T15:08:14.436Z,8.87
2022-11-24T15:11:00.882Z,8.20
2022-11-24T15:13:55.228Z,8.20
2022-11-24T15:16:41.292Z,9.50
2022-11-24T15:19:29.644Z,8.60
2022-11-24T15:22:38.060Z,8.17
2022-11-24T15:25:33.749Z,8.90
2022-11-24T15:28:17.063Z,9.30
2022-11-24T15:31:04.063Z,9.10
2022-11-24T15:33:47.210Z,8.67
2022-11-24T15:36:30.308Z,9.87
2022-11-24T15:39:13.405Z,9.73
2022-11-24T15:41:56.558Z,9.60
2022-11-24T15:44:39.639Z,9.40
2022-11-24T15:47:24.236Z,10.23
2022-11-24T15:50:08.742Z,10.57
2022-11-24T15:52:51.983Z,10.00
2022-11-24T15:55:35.833Z,10.07
2022-11-24T15:58:18.998Z,10.13
2022-11-24T16:01:02.102Z,9.37
2022-11-24T16:03:48.167Z,9.80
2022-11-24T16:06:32.243Z,11.13
2022-11-24T16:09:17.329Z,9.30
2022-11-24T16:12:00.504Z,9.47
2022-11-24T16:14:43.716Z,9.30
2022-11-24T16:17:26.962Z,9.57
2022-11-24T16:20:12.647Z,9.60
2022-11-24T16:22:56.115Z,9.03
2022-11-24T16:25:39.308Z,9.33
2022-11-24T16:28:22.480Z,8.63
2022-11-24T16:31:05.626Z,10.17
2022-11-24T16:33:48.821Z,7.90
2022-11-24T16:36:33.334Z,8.57
2022-11-24T16:39:16.473Z,10.00
2022-11-24T16:41:59.505Z,10.50
2022-11-24T16:44:42.735Z,9.40
2022-11-24T16:47:25.833Z,10.77
2022-11-24T16:50:10.517Z,9.60
2022-11-24T16:52:54.939Z,9.90
2022-11-24T16:55:37.992Z,10.77
2022-11-24T16:58:21.037Z,10.53
2022-11-24T17:01:05.337Z,9.23
2022-11-24T17:03:48.562Z,10.20
2022-11-24T17:06:33.854Z,10.40
2022-11-24T17:09:18.920Z,9.37
2022-11-24T17:12:02.005Z,10.20
2022-11-24T17:15:03.118Z,11.03
2022-11-24T17:18:16.300Z,10.37
2022-11-24T17:20:51.164Z,9.73
2022-11-24T17:23:34.413Z,10.10
2022-11-24T17:26:19.152Z,10.47
2022-11-24T17:29:02.232Z,9.63
2022-11-24T17:31:45.373Z,9.47
2022-11-24T17:34:28.487Z,10.13
2022-11-24T17:37:11.538Z,10.43
2022-11-24T17:40:20.370Z,10.23
2022-11-24T17:43:00.762Z,9.60
2022-11-24T17:45:43.828Z,9.33
2022-11-24T17:48:26.985Z,9.63
2022-11-24T17:51:13.931Z,9.37
2022-11-24T17:53:57.394Z,10.53
2022-11-24T17:56:42.706Z,9.63
2022-11-24T17:59:27.370Z,9.73
2022-11-24T18:02:11.608Z,10.27
2022-11-24T18:04:54.713Z,10.00
2022-11-24T18:07:37.901Z,9.33
2022-11-24T18:10:21.111Z,9.23
2022-11-24T18:13:04.267Z,8.90
2022-11-24T18:15:48.637Z,9.17
2022-11-24T18:18:36.529Z,10.00
2022-11-24T18:21:22.347Z,9.53
2022-11-24T18:24:05.767Z,9.67
2022-11-24T18:26:51.334Z,9.93
2022-11-24T18:29:34.517Z,9.53
2022-11-24T18:32:19.064Z,9.70
2022-11-24T18:35:02.123Z,9.80
2022-11-24T18:37:45.181Z,9.07
2022-11-24T18:40:28.281Z,10.00
2022-11-24T18:43:11.311Z,9.70
2022-11-24T18:45:55.205Z,9.97
2022-11-24T18:48:40.065Z,9.63
2022-11-24T18:51:23.654Z,10.30
2022-11-24T18:54:06.828Z,9.17
2022-11-24T18:56:50.009Z,11.17
2022-11-24T18:59:33.077Z,9.07
2022-11-24T19:02:16.236Z,9.60
2022-11-24T19:05:00.818Z,10.77
2022-11-24T19:07:44.306Z,11.77
2022-11-24T19:10:27.423Z,9.67
2022-11-24T19:13:10.448Z,9.90
2022-11-24T19:15:53.623Z,10.50
2022-11-24T19:18:36.716Z,10.60
2022-11-24T19:21:21.449Z,9.40
2022-11-24T19:24:05.824Z,9.10
2022-11-24T19:26:49.032Z,9.40
2022-11-24T19:29:32.273Z,9.97
2022-11-24T19:32:16.946Z,10.67
2022-11-24T19:35:00.252Z,9.73
2022-11-24T19:37:45.036Z,10.63
2022-11-24T19:40:28.120Z,10.83
2022-11-24T19:43:11.480Z,9.40
2022-11-24T19:45:54.669Z,9.87
2022-11-24T19:48:39.099Z,9.60
2022-11-24T19:51:25.714Z,10.33
2022-11-24T19:54:12.971Z,10.57
2022-11-24T19:56:56.636Z,11.57
2022-11-24T19:59:39.765Z,10.67
2022-11-24T20:02:22.862Z,8.80
2022-11-24T20:05:06.385Z,10.40
2022-11-24T20:07:49.719Z,9.07
2022-11-24T20:10:34.311Z,8.83
2022-11-24T20:13:17.393Z,9.47
2022-11-24T20:16:04.953Z,10.60
2022-11-24T20:18:48.969Z,10.03
2022-11-24T20:21:32.756Z,10.57
2022-11-24T20:24:17.649Z,9.73
2022-11-24T20:27:03.188Z,9.67
2022-11-24T20:29:47.102Z,10.30
2022-11-24T20:32:30.252Z,9.73
2022-11-24T20:35:18.020Z,10.20
2022-11-24T20:38:01.514Z,8.97
2022-11-24T20:40:44.515Z,9.07
2022-11-24T20:43:31.343Z,10.63
2022-11-24T20:46:19.436Z,9.40
2022-11-24T20:49:03.969Z,10.70
2022-11-24T20:51:48.186Z,9.93
2022-11-24T20:54:31.347Z,10.17
2022-11-24T20:57:14.512Z,9.87
2022-11-24T20:59:58.966Z,9.30
2022-11-24T21:02:42.105Z,9.87
2022-11-24T21:05:25.365Z,8.80
2022-11-24T21:08:08.447Z,9.67
2022-11-24T21:10:56.050Z,9.97
2022-11-24T21:13:40.062Z,9.70
2022-11-24T21:16:26.594Z,10.17
2022-11-24T21:19:12.475Z,9.53
2022-11-24T21:21:55.545Z,10.03
2022-11-24T21:24:38.590Z,9.73
2022-11-24T21:27:21.616Z,9.43
2022-11-24T21:30:05.124Z,9.93
2022-11-24T21:32:49.749Z,10.30
2022-11-24T21:35:36.098Z,9.90
2022-11-24T21:38:19.583Z,9.43
2022-11-24T21:41:03.280Z,9.93
2022-11-24T21:43:46.831Z,9.50
2022-11-24T21:46:38.971Z,10.13
2022-11-24T21:49:26.826Z,10.07
2022-11-24T21:52:09.865Z,9.60
2022-11-24T21:54:52.931Z,9.80
2022-11-24T21:57:35.976Z,9.37
2022-11-24T22:00:20.214Z,8.80
2022-11-24T22:03:03.219Z,8.83
2022-11-24T22:05:55.527Z,9.67
2022-11-24T22:08:38.587Z,9.27
2022-11-24T22:11:23.772Z,9.30
2022-11-24T22:14:06.825Z,9.43
2022-11-24T22:16:49.983Z,9.40
2022-11-24T22:19:33.282Z,9.27
2022-11-24T22:22:17.772Z,8.30
2022-11-24T22:25:00.848Z,9.83
2022-11-24T22:27:44.136Z,7.80
2022-11-24T22:30:27.295Z,9.00
2022-11-24T22:33:10.387Z,9.13
2022-11-24T22:35:59.932Z,8.90
2022-11-24T22:38:44.790Z,7.23
2022-11-24T22:41:27.952Z,7.73
2022-11-24T22:44:11.024Z,8.23
2022-11-24T22:46:54.112Z,10.13
2022-11-24T22:49:37.112Z,8.57
2022-11-24T22:52:20.196Z,9.47
2022-11-24T22:55:04.824Z,8.40
2022-11-24T22:57:48.532Z,7.47
2022-11-24T23:00:32.052Z,8.20
2022-11-24T23:03:15.205Z,8.80
2022-11-24T23:06:00.665Z,8.07
2022-11-24T23:08:43.781Z,9.73
2022-11-24T23:11:35.124Z,8.50
2022-11-24T23:14:20.736Z,8.50
2022-11-24T23:17:03.825Z,8.37
2022-11-24T23:19:46.930Z,8.60
2022-11-24T23:22:29.986Z,8.57
2022-11-24T23:25:13.126Z,7.83
2022-11-24T23:27:57.647Z,7.77
2022-11-24T23:30:40.708Z,8.30
2022-11-24T23:33:23.740Z,8.27
2022-11-24T23:36:09.021Z,8.03
2022-11-24T23:38:52.087Z,7.43
2022-11-24T23:41:35.279Z,8.13
2022-11-24T23:44:19.885Z,8.37
2022-11-24T23:47:02.899Z,8.93
2022-11-24T23:49:45.932Z,8.80
2022-11-24T23:52:31.286Z,9.07
2022-11-24T23:55:14.288Z,7.90
2022-11-24T23:57:57.291Z,8.70
